sensor_id;sensor_type;location;lat;lon;timestamp;P1;durP1;ratioP1;P2;durP2;ratioP2
60318;SDS011;46163;52.306;5.634;2023-06-24T00:01:07;3.08;;;2.78;;
60318;SDS011;46163;52.306;5.634;2023-06-24T00:03:32;6.45;;;3.10;;
60318;SDS011;46163;52.306;5.634;2023-06-24T00:06:02;5.03;;;3.20;;
60318;SDS011;46163;52.306;5.634;2023-06-24T00:08:28;3.63;;;3.00;;
60318;SDS011;46163;52.306;5.634;2023-06-24T00:10:59;3.67;;;2.95;;
60318;SDS011;46163;52.306;5.634;2023-06-24T00:13:25;4.93;;;3.22;;
60318;SDS011;46163;52.306;5.634;2023-06-24T00:15:50;4.93;;;3.00;;
60318;SDS011;46163;52.306;5.634;2023-06-24T00:21:38;3.60;;;2.90;;
60318;SDS011;46163;52.306;5.634;2023-06-24T00:24:05;6.00;;;3.00;;
60318;SDS011;46163;52.306;5.634;2023-06-24T00:26:30;4.00;;;3.50;;
60318;SDS011;46163;52.306;5.634;2023-06-24T00:42:01;5.03;;;3.40;;
60318;SDS011;46163;52.306;5.634;2023-06-24T00:47:48;4.03;;;3.10;;
60318;SDS011;46163;52.306;5.634;2023-06-24T00:50:14;4.10;;;3.20;;
60318;SDS011;46163;52.306;5.634;2023-06-24T00:52:41;3.83;;;3.00;;
60318;SDS011;46163;52.306;5.634;2023-06-24T00:55:08;6.47;;;3.15;;
60318;SDS011;46163;52.306;5.634;2023-06-24T00:57:37;4.25;;;3.10;;
60318;SDS011;46163;52.306;5.634;2023-06-24T01:00:02;3.90;;;3.10;;
60318;SDS011;46163;52.306;5.634;2023-06-24T01:02:33;4.07;;;3.30;;
60318;SDS011;46163;52.306;5.634;2023-06-24T01:05:02;4.45;;;3.40;;
60318;SDS011;46163;52.306;5.634;2023-06-24T01:14:12;4.97;;;3.42;;
60318;SDS011;46163;52.306;5.634;2023-06-24T01:16:56;4.88;;;3.30;;
60318;SDS011;46163;52.306;5.634;2023-06-24T01:20:29;4.10;;;3.05;;
60318;SDS011;46163;52.306;5.634;2023-06-24T01:43:50;4.20;;;3.47;;
60318;SDS011;46163;52.306;5.634;2023-06-24T01:46:21;4.65;;;3.45;;
60318;SDS011;46163;52.306;5.634;2023-06-24T01:52:09;3.50;;;3.20;;
60318;SDS011;46163;52.306;5.634;2023-06-24T01:54:36;4.22;;;3.13;;
60318;SDS011;46163;52.306;5.634;2023-06-24T01:59:33;5.65;;;3.47;;
60318;SDS011;46163;52.306;5.634;2023-06-24T02:02:02;5.35;;;3.53;;
60318;SDS011;46163;52.306;5.634;2023-06-24T02:04:29;4.45;;;3.50;;
60318;SDS011;46163;52.306;5.634;2023-06-24T02:06:58;3.53;;;3.22;;
60318;SDS011;46163;52.306;5.634;2023-06-24T02:09:26;4.93;;;3.28;;
60318;SDS011;46163;52.306;5.634;2023-06-24T02:11:57;6.93;;;3.80;;
60318;SDS011;46163;52.306;5.634;2023-06-24T02:14:24;4.07;;;3.67;;
60318;SDS011;46163;52.306;5.634;2023-06-24T02:20:14;4.70;;;3.47;;
60318;SDS011;46163;52.306;5.634;2023-06-24T02:22:41;4.10;;;3.67;;
60318;SDS011;46163;52.306;5.634;2023-06-24T02:25:08;7.65;;;3.50;;
60318;SDS011;46163;52.306;5.634;2023-06-24T02:27:34;3.80;;;3.20;;
60318;SDS011;46163;52.306;5.634;2023-06-24T02:30:02;4.47;;;3.70;;
60318;SDS011;46163;52.306;5.634;2023-06-24T03:32:50;6.13;;;4.95;;
60318;SDS011;46163;52.306;5.634;2023-06-24T03:38:37;6.95;;;5.20;;
60318;SDS011;46163;52.306;5.634;2023-06-24T03:44:25;7.75;;;5.47;;
60318;SDS011;46163;52.306;5.634;2023-06-24T03:46:51;6.10;;;5.50;;
60318;SDS011;46163;52.306;5.634;2023-06-24T03:49:17;6.43;;;5.22;;
60318;SDS011;46163;52.306;5.634;2023-06-24T03:51:43;6.03;;;5.03;;
60318;SDS011;46163;52.306;5.634;2023-06-24T03:54:09;7.20;;;5.45;;
60318;SDS011;46163;52.306;5.634;2023-06-24T03:56:34;7.35;;;5.80;;
60318;SDS011;46163;52.306;5.634;2023-06-24T03:59:00;6.35;;;5.75;;
60318;SDS011;46163;52.306;5.634;2023-06-24T04:01:25;7.50;;;5.68;;
60318;SDS011;46163;52.306;5.634;2023-06-24T04:03:50;7.30;;;4.95;;
60318;SDS011;46163;52.306;5.634;2023-06-24T04:06:16;6.60;;;5.22;;
60318;SDS011;46163;52.306;5.634;2023-06-24T04:12:03;6.43;;;4.80;;
60318;SDS011;46163;52.306;5.634;2023-06-24T04:14:29;7.47;;;5.38;;
60318;SDS011;46163;52.306;5.634;2023-06-24T04:16:54;6.15;;;5.40;;
60318;SDS011;46163;52.306;5.634;2023-06-24T04:19:20;6.72;;;5.57;;
60318;SDS011;46163;52.306;5.634;2023-06-24T04:21:46;7.20;;;5.60;;
60318;SDS011;46163;52.306;5.634;2023-06-24T04:24:11;7.43;;;5.53;;
60318;SDS011;46163;52.306;5.634;2023-06-24T04:26:36;8.35;;;5.97;;
60318;SDS011;46163;52.306;5.634;2023-06-24T04:29:02;9.07;;;6.13;;
60318;SDS011;46163;52.306;5.634;2023-06-24T04:31:27;7.97;;;5.43;;
60318;SDS011;46163;52.306;5.634;2023-06-24T04:43:58;7.13;;;5.35;;
60318;SDS011;46163;52.306;5.634;2023-06-24T04:46:24;6.40;;;5.40;;
60318;SDS011;46163;52.306;5.634;2023-06-24T04:48:49;8.55;;;5.72;;
60318;SDS011;46163;52.306;5.634;2023-06-24T04:51:15;6.75;;;5.50;;
60318;SDS011;46163;52.306;5.634;2023-06-24T04:53:40;6.68;;;5.32;;
60318;SDS011;46163;52.306;5.634;2023-06-24T04:56:06;8.32;;;5.55;;
60318;SDS011;46163;52.306;5.634;2023-06-24T04:58:32;7.80;;;5.40;;
60318;SDS011;46163;52.306;5.634;2023-06-24T05:00:57;6.30;;;5.18;;
60318;SDS011;46163;52.306;5.634;2023-06-24T05:03:27;6.30;;;5.25;;
60318;SDS011;46163;52.306;5.634;2023-06-24T05:05:55;6.97;;;5.57;;
60318;SDS011;46163;52.306;5.634;2023-06-24T05:08:21;5.93;;;5.20;;
60318;SDS011;46163;52.306;5.634;2023-06-24T05:10:46;7.03;;;5.40;;
60318;SDS011;46163;52.306;5.634;2023-06-24T05:13:11;6.13;;;5.15;;
60318;SDS011;46163;52.306;5.634;2023-06-24T05:15:37;6.68;;;5.88;;
60318;SDS011;46163;52.306;5.634;2023-06-24T05:18:02;7.65;;;6.03;;
60318;SDS011;46163;52.306;5.634;2023-06-24T05:20:28;8.95;;;6.45;;
60318;SDS011;46163;52.306;5.634;2023-06-24T05:22:53;6.55;;;5.85;;
60318;SDS011;46163;52.306;5.634;2023-06-24T05:25:19;6.55;;;5.47;;
60318;SDS011;46163;52.306;5.634;2023-06-24T05:30:12;7.93;;;6.90;;
60318;SDS011;46163;52.306;5.634;2023-06-24T05:32:39;9.32;;;6.45;;
60318;SDS011;46163;52.306;5.634;2023-06-24T05:35:07;8.93;;;7.00;;
60318;SDS011;46163;52.306;5.634;2023-06-24T05:37:33;11.55;;;7.45;;
60318;SDS011;46163;52.306;5.634;2023-06-24T05:39:59;8.55;;;7.30;;
60318;SDS011;46163;52.306;5.634;2023-06-24T05:42:27;8.13;;;6.93;;
60318;SDS011;46163;52.306;5.634;2023-06-24T05:44:53;10.65;;;7.07;;
60318;SDS011;46163;52.306;5.634;2023-06-24T05:47:18;8.77;;;7.13;;
60318;SDS011;46163;52.306;5.634;2023-06-24T05:49:47;7.15;;;6.32;;
60318;SDS011;46163;52.306;5.634;2023-06-24T05:52:12;8.43;;;6.53;;
60318;SDS011;46163;52.306;5.634;2023-06-24T05:54:38;7.28;;;5.68;;
60318;SDS011;46163;52.306;5.634;2023-06-24T05:57:05;7.97;;;6.15;;
60318;SDS011;46163;52.306;5.634;2023-06-24T05:59:34;9.05;;;6.10;;
60318;SDS011;46163;52.306;5.634;2023-06-24T06:01:59;8.18;;;5.32;;
60318;SDS011;46163;52.306;5.634;2023-06-24T06:04:27;7.40;;;5.40;;
60318;SDS011;46163;52.306;5.634;2023-06-24T06:06:53;6.97;;;5.78;;
60318;SDS011;46163;52.306;5.634;2023-06-24T06:09:19;7.10;;;5.38;;
60318;SDS011;46163;52.306;5.634;2023-06-24T06:11:45;7.20;;;5.50;;
60318;SDS011;46163;52.306;5.634;2023-06-24T06:14:11;6.25;;;4.63;;
60318;SDS011;46163;52.306;5.634;2023-06-24T06:16:36;7.03;;;5.10;;
60318;SDS011;46163;52.306;5.634;2023-06-24T06:19:01;10.45;;;4.80;;
60318;SDS011;46163;52.306;5.634;2023-06-24T06:21:28;7.95;;;5.10;;
60318;SDS011;46163;52.306;5.634;2023-06-24T06:23:53;6.50;;;4.97;;
60318;SDS011;46163;52.306;5.634;2023-06-24T06:26:18;7.00;;;5.00;;
60318;SDS011;46163;52.306;5.634;2023-06-24T06:28:44;6.72;;;4.82;;
60318;SDS011;46163;52.306;5.634;2023-06-24T06:31:09;6.88;;;4.80;;
60318;SDS011;46163;52.306;5.634;2023-06-24T06:33:35;7.30;;;4.95;;
60318;SDS011;46163;52.306;5.634;2023-06-24T06:36:00;6.88;;;4.80;;
60318;SDS011;46163;52.306;5.634;2023-06-24T06:38:26;5.50;;;4.53;;
60318;SDS011;46163;52.306;5.634;2023-06-24T06:40:52;6.40;;;5.22;;
60318;SDS011;46163;52.306;5.634;2023-06-24T06:43:17;8.38;;;4.75;;
60318;SDS011;46163;52.306;5.634;2023-06-24T06:45:42;7.35;;;4.10;;
60318;SDS011;46163;52.306;5.634;2023-06-24T06:48:08;6.38;;;4.47;;
60318;SDS011;46163;52.306;5.634;2023-06-24T06:53:01;7.50;;;5.22;;
60318;SDS011;46163;52.306;5.634;2023-06-24T06:55:27;8.02;;;4.57;;
60318;SDS011;46163;52.306;5.634;2023-06-24T06:57:52;7.38;;;4.65;;
60318;SDS011;46163;52.306;5.634;2023-06-24T07:00:18;5.40;;;4.65;;
60318;SDS011;46163;52.306;5.634;2023-06-24T07:02:45;5.63;;;5.00;;
60318;SDS011;46163;52.306;5.634;2023-06-24T07:05:11;4.72;;;3.97;;
60318;SDS011;46163;52.306;5.634;2023-06-24T07:07:39;6.40;;;4.10;;
60318;SDS011;46163;52.306;5.634;2023-06-24T07:10:09;5.45;;;3.80;;
60318;SDS011;46163;52.306;5.634;2023-06-24T07:12:34;5.80;;;3.70;;
60318;SDS011;46163;52.306;5.634;2023-06-24T07:15:00;5.50;;;3.58;;
60318;SDS011;46163;52.306;5.634;2023-06-24T07:17:25;5.43;;;3.50;;
60318;SDS011;46163;52.306;5.634;2023-06-24T07:19:51;5.68;;;3.70;;
60318;SDS011;46163;52.306;5.634;2023-06-24T07:22:16;4.00;;;3.55;;
60318;SDS011;46163;52.306;5.634;2023-06-24T07:24:42;7.13;;;3.70;;
60318;SDS011;46163;52.306;5.634;2023-06-24T07:27:07;4.18;;;3.45;;
60318;SDS011;46163;52.306;5.634;2023-06-24T07:29:33;3.97;;;3.45;;
60318;SDS011;46163;52.306;5.634;2023-06-24T07:31:58;3.88;;;3.20;;
60318;SDS011;46163;52.306;5.634;2023-06-24T07:34:24;4.38;;;3.13;;
60318;SDS011;46163;52.306;5.634;2023-06-24T07:36:49;6.45;;;2.90;;
60318;SDS011;46163;52.306;5.634;2023-06-24T07:39:16;6.75;;;2.97;;
60318;SDS011;46163;52.306;5.634;2023-06-24T07:41:42;3.97;;;3.00;;
60318;SDS011;46163;52.306;5.634;2023-06-24T07:44:07;5.18;;;2.90;;
60318;SDS011;46163;52.306;5.634;2023-06-24T07:46:35;2.90;;;2.60;;
60318;SDS011;46163;52.306;5.634;2023-06-24T07:49:01;4.35;;;2.53;;
60318;SDS011;46163;52.306;5.634;2023-06-24T07:51:26;2.77;;;2.30;;
60318;SDS011;46163;52.306;5.634;2023-06-24T07:53:52;3.20;;;2.10;;
60318;SDS011;46163;52.306;5.634;2023-06-24T07:56:18;4.00;;;2.33;;
60318;SDS011;46163;52.306;5.634;2023-06-24T07:58:43;4.27;;;2.40;;
60318;SDS011;46163;52.306;5.634;2023-06-24T08:01:09;3.80;;;2.50;;
60318;SDS011;46163;52.306;5.634;2023-06-24T08:03:34;2.90;;;2.23;;
60318;SDS011;46163;52.306;5.634;2023-06-24T08:06:01;4.15;;;2.30;;
60318;SDS011;46163;52.306;5.634;2023-06-24T08:08:27;3.53;;;2.33;;
60318;SDS011;46163;52.306;5.634;2023-06-24T08:10:52;2.53;;;2.30;;
60318;SDS011;46163;52.306;5.634;2023-06-24T08:13:18;4.63;;;2.43;;
60318;SDS011;46163;52.306;5.634;2023-06-24T08:15:44;5.57;;;2.20;;
60318;SDS011;46163;52.306;5.634;2023-06-24T08:18:09;2.85;;;2.47;;
60318;SDS011;46163;52.306;5.634;2023-06-24T08:20:35;2.80;;;2.40;;
60318;SDS011;46163;52.306;5.634;2023-06-24T08:23:01;2.60;;;2.40;;
60318;SDS011;46163;52.306;5.634;2023-06-24T08:25:26;3.30;;;2.47;;
60318;SDS011;46163;52.306;5.634;2023-06-24T08:27:52;5.40;;;2.30;;
60318;SDS011;46163;52.306;5.634;2023-06-24T08:30:17;3.90;;;2.30;;
60318;SDS011;46163;52.306;5.634;2023-06-24T08:32:43;3.33;;;2.43;;
60318;SDS011;46163;52.306;5.634;2023-06-24T08:35:09;2.80;;;2.00;;
60318;SDS011;46163;52.306;5.634;2023-06-24T08:37:38;3.45;;;2.20;;
60318;SDS011;46163;52.306;5.634;2023-06-24T08:40:05;4.38;;;2.30;;
60318;SDS011;46163;52.306;5.634;2023-06-24T08:42:31;2.33;;;2.08;;
60318;SDS011;46163;52.306;5.634;2023-06-24T08:44:57;4.97;;;2.40;;
60318;SDS011;46163;52.306;5.634;2023-06-24T08:47:26;3.38;;;2.30;;
60318;SDS011;46163;52.306;5.634;2023-06-24T08:49:55;2.60;;;2.30;;
60318;SDS011;46163;52.306;5.634;2023-06-24T08:52:29;3.22;;;2.17;;
60318;SDS011;46163;52.306;5.634;2023-06-24T08:54:56;4.28;;;2.20;;
60318;SDS011;46163;52.306;5.634;2023-06-24T08:57:24;2.13;;;1.85;;
60318;SDS011;46163;52.306;5.634;2023-06-24T08:59:49;3.90;;;2.47;;
60318;SDS011;46163;52.306;5.634;2023-06-24T09:02:15;2.85;;;2.10;;
60318;SDS011;46163;52.306;5.634;2023-06-24T09:04:41;2.43;;;2.00;;
60318;SDS011;46163;52.306;5.634;2023-06-24T09:07:08;2.88;;;2.10;;
60318;SDS011;46163;52.306;5.634;2023-06-24T09:09:41;2.53;;;1.93;;
60318;SDS011;46163;52.306;5.634;2023-06-24T09:12:11;3.20;;;2.00;;
60318;SDS011;46163;52.306;5.634;2023-06-24T09:14:38;4.10;;;2.17;;
60318;SDS011;46163;52.306;5.634;2023-06-24T09:17:05;4.28;;;2.50;;
60318;SDS011;46163;52.306;5.634;2023-06-24T09:19:31;2.58;;;2.25;;
60318;SDS011;46163;52.306;5.634;2023-06-24T09:22:04;4.63;;;2.35;;
60318;SDS011;46163;52.306;5.634;2023-06-24T09:24:32;2.35;;;2.10;;
60318;SDS011;46163;52.306;5.634;2023-06-24T09:31:52;4.57;;;2.75;;
60318;SDS011;46163;52.306;5.634;2023-06-24T09:34:18;3.03;;;2.30;;
60318;SDS011;46163;52.306;5.634;2023-06-24T09:39:26;2.72;;;2.22;;
60318;SDS011;46163;52.306;5.634;2023-06-24T09:41:58;2.97;;;2.10;;
60318;SDS011;46163;52.306;5.634;2023-06-24T09:44:26;3.45;;;2.60;;
60318;SDS011;46163;52.306;5.634;2023-06-24T09:46:52;4.00;;;2.40;;
60318;SDS011;46163;52.306;5.634;2023-06-24T09:49:19;3.75;;;2.40;;
60318;SDS011;46163;52.306;5.634;2023-06-24T09:51:45;5.80;;;2.70;;
60318;SDS011;46163;52.306;5.634;2023-06-24T09:54:13;4.32;;;2.80;;
60318;SDS011;46163;52.306;5.634;2023-06-24T09:56:41;4.22;;;2.60;;
60318;SDS011;46163;52.306;5.634;2023-06-24T09:59:09;3.72;;;2.70;;
60318;SDS011;46163;52.306;5.634;2023-06-24T10:01:43;3.95;;;2.40;;
60318;SDS011;46163;52.306;5.634;2023-06-24T10:04:14;3.42;;;2.55;;
60318;SDS011;46163;52.306;5.634;2023-06-24T10:06:41;4.97;;;2.20;;
60318;SDS011;46163;52.306;5.634;2023-06-24T10:09:09;4.83;;;2.23;;
60318;SDS011;46163;52.306;5.634;2023-06-24T10:11:35;3.78;;;2.47;;
60318;SDS011;46163;52.306;5.634;2023-06-24T10:14:01;5.25;;;2.60;;
60318;SDS011;46163;52.306;5.634;2023-06-24T10:16:26;5.50;;;2.50;;
60318;SDS011;46163;52.306;5.634;2023-06-24T10:18:59;3.63;;;2.70;;
60318;SDS011;46163;52.306;5.634;2023-06-24T10:21:49;3.92;;;2.33;;
60318;SDS011;46163;52.306;5.634;2023-06-24T10:24:35;3.03;;;2.20;;
60318;SDS011;46163;52.306;5.634;2023-06-24T10:27:09;3.15;;;2.50;;
60318;SDS011;46163;52.306;5.634;2023-06-24T10:29:38;3.22;;;2.42;;
60318;SDS011;46163;52.306;5.634;2023-06-24T10:32:07;5.20;;;2.43;;
60318;SDS011;46163;52.306;5.634;2023-06-24T10:39:51;5.05;;;2.60;;
60318;SDS011;46163;52.306;5.634;2023-06-24T10:44:48;3.53;;;2.60;;
60318;SDS011;46163;52.306;5.634;2023-06-24T10:47:15;4.03;;;2.53;;
60318;SDS011;46163;52.306;5.634;2023-06-24T10:49:40;2.60;;;2.38;;
60318;SDS011;46163;52.306;5.634;2023-06-24T10:52:11;3.40;;;2.17;;
60318;SDS011;46163;52.306;5.634;2023-06-24T10:54:38;4.03;;;2.40;;
60318;SDS011;46163;52.306;5.634;2023-06-24T10:57:11;2.78;;;2.38;;
60318;SDS011;46163;52.306;5.634;2023-06-24T10:59:46;3.47;;;2.30;;
60318;SDS011;46163;52.306;5.634;2023-06-24T11:02:22;2.53;;;2.20;;
60318;SDS011;46163;52.306;5.634;2023-06-24T11:04:49;3.05;;;2.40;;
60318;SDS011;46163;52.306;5.634;2023-06-24T11:07:20;2.75;;;2.30;;
60318;SDS011;46163;52.306;5.634;2023-06-24T11:09:56;2.80;;;2.45;;
60318;SDS011;46163;52.306;5.634;2023-06-24T11:12:33;3.22;;;2.20;;
60318;SDS011;46163;52.306;5.634;2023-06-24T11:15:06;6.25;;;2.03;;
60318;SDS011;46163;52.306;5.634;2023-06-24T11:17:33;4.93;;;2.45;;
60318;SDS011;46163;52.306;5.634;2023-06-24T11:20:00;2.50;;;2.22;;
60318;SDS011;46163;52.306;5.634;2023-06-24T11:22:26;5.78;;;2.53;;
60318;SDS011;46163;52.306;5.634;2023-06-24T11:24:54;4.63;;;3.15;;
60318;SDS011;46163;52.306;5.634;2023-06-24T11:27:24;3.60;;;2.90;;
60318;SDS011;46163;52.306;5.634;2023-06-24T11:29:52;3.50;;;2.42;;
60318;SDS011;46163;52.306;5.634;2023-06-24T11:32:18;4.35;;;2.80;;
60318;SDS011;46163;52.306;5.634;2023-06-24T11:34:44;3.90;;;2.70;;
60318;SDS011;46163;52.306;5.634;2023-06-24T11:37:13;4.25;;;3.15;;
60318;SDS011;46163;52.306;5.634;2023-06-24T11:39:40;3.47;;;2.60;;
60318;SDS011;46163;52.306;5.634;2023-06-24T11:42:06;3.53;;;2.40;;
60318;SDS011;46163;52.306;5.634;2023-06-24T11:44:36;3.63;;;2.90;;
60318;SDS011;46163;52.306;5.634;2023-06-24T11:47:07;4.18;;;2.80;;
60318;SDS011;46163;52.306;5.634;2023-06-24T11:52:15;3.13;;;2.53;;
60318;SDS011;46163;52.306;5.634;2023-06-24T11:54:41;5.63;;;2.70;;
60318;SDS011;46163;52.306;5.634;2023-06-24T11:57:08;3.78;;;3.03;;
60318;SDS011;46163;52.306;5.634;2023-06-24T11:59:34;4.45;;;2.42;;
60318;SDS011;46163;52.306;5.634;2023-06-24T12:02:00;4.38;;;2.70;;
60318;SDS011;46163;52.306;5.634;2023-06-24T12:04:31;2.67;;;2.33;;
60318;SDS011;46163;52.306;5.634;2023-06-24T12:06:59;4.25;;;2.50;;
60318;SDS011;46163;52.306;5.634;2023-06-24T12:09:27;4.75;;;2.40;;
60318;SDS011;46163;52.306;5.634;2023-06-24T12:11:54;3.83;;;2.65;;
60318;SDS011;46163;52.306;5.634;2023-06-24T12:14:19;3.15;;;2.55;;
60318;SDS011;46163;52.306;5.634;2023-06-24T12:16:44;2.40;;;2.20;;
60318;SDS011;46163;52.306;5.634;2023-06-24T12:19:10;4.05;;;2.47;;
60318;SDS011;46163;52.306;5.634;2023-06-24T12:21:36;3.05;;;2.33;;
60318;SDS011;46163;52.306;5.634;2023-06-24T12:24:03;3.80;;;2.20;;
60318;SDS011;46163;52.306;5.634;2023-06-24T12:26:30;4.03;;;2.45;;
60318;SDS011;46163;52.306;5.634;2023-06-24T12:28:56;5.47;;;2.45;;
60318;SDS011;46163;52.306;5.634;2023-06-24T12:31:23;2.80;;;2.10;;
60318;SDS011;46163;52.306;5.634;2023-06-24T12:33:50;3.10;;;2.40;;
60318;SDS011;46163;52.306;5.634;2023-06-24T12:36:17;2.95;;;2.53;;
60318;SDS011;46163;52.306;5.634;2023-06-24T12:38:46;3.13;;;2.38;;
60318;SDS011;46163;52.306;5.634;2023-06-24T12:41:11;2.58;;;2.38;;
60318;SDS011;46163;52.306;5.634;2023-06-24T12:43:37;3.67;;;2.55;;
60318;SDS011;46163;52.306;5.634;2023-06-24T12:46:03;6.13;;;2.38;;
60318;SDS011;46163;52.306;5.634;2023-06-24T12:48:30;2.78;;;2.28;;
60318;SDS011;46163;52.306;5.634;2023-06-24T12:50:56;2.97;;;2.60;;
60318;SDS011;46163;52.306;5.634;2023-06-24T12:53:21;3.92;;;2.70;;
60318;SDS011;46163;52.306;5.634;2023-06-24T12:55:47;3.05;;;2.75;;
60318;SDS011;46163;52.306;5.634;2023-06-24T12:58:13;4.38;;;2.80;;
60318;SDS011;46163;52.306;5.634;2023-06-24T13:00:40;2.60;;;2.40;;
60318;SDS011;46163;52.306;5.634;2023-06-24T13:03:05;3.15;;;2.40;;
60318;SDS011;46163;52.306;5.634;2023-06-24T13:05:31;3.60;;;2.50;;
60318;SDS011;46163;52.306;5.634;2023-06-24T13:07:56;3.47;;;2.30;;
60318;SDS011;46163;52.306;5.634;2023-06-24T13:10:21;2.80;;;2.03;;
60318;SDS011;46163;52.306;5.634;2023-06-24T13:12:47;2.72;;;2.20;;
60318;SDS011;46163;52.306;5.634;2023-06-24T13:15:14;4.53;;;2.58;;
60318;SDS011;46163;52.306;5.634;2023-06-24T13:17:40;3.30;;;2.40;;
60318;SDS011;46163;52.306;5.634;2023-06-24T13:20:08;3.03;;;2.30;;
60318;SDS011;46163;52.306;5.634;2023-06-24T13:22:33;4.20;;;2.50;;
60318;SDS011;46163;52.306;5.634;2023-06-24T13:24:59;3.03;;;2.05;;
60318;SDS011;46163;52.306;5.634;2023-06-24T13:27:25;2.58;;;2.30;;
60318;SDS011;46163;52.306;5.634;2023-06-24T13:29:50;3.90;;;2.53;;
60318;SDS011;46163;52.306;5.634;2023-06-24T13:32:15;4.25;;;2.65;;
60318;SDS011;46163;52.306;5.634;2023-06-24T13:34:44;4.65;;;2.40;;
60318;SDS011;46163;52.306;5.634;2023-06-24T13:37:10;4.03;;;2.40;;
60318;SDS011;46163;52.306;5.634;2023-06-24T13:39:35;4.63;;;2.40;;
60318;SDS011;46163;52.306;5.634;2023-06-24T13:42:01;6.63;;;2.17;;
60318;SDS011;46163;52.306;5.634;2023-06-24T13:44:26;3.97;;;2.40;;
60318;SDS011;46163;52.306;5.634;2023-06-24T13:46:54;3.30;;;2.20;;
60318;SDS011;46163;52.306;5.634;2023-06-24T13:49:19;4.88;;;2.42;;
60318;SDS011;46163;52.306;5.634;2023-06-24T13:51:45;3.17;;;2.40;;
60318;SDS011;46163;52.306;5.634;2023-06-24T13:54:10;4.45;;;2.30;;
60318;SDS011;46163;52.306;5.634;2023-06-24T13:56:36;3.10;;;2.33;;
60318;SDS011;46163;52.306;5.634;2023-06-24T13:59:04;2.47;;;2.28;;
60318;SDS011;46163;52.306;5.634;2023-06-24T14:01:30;2.60;;;2.20;;
60318;SDS011;46163;52.306;5.634;2023-06-24T14:03:56;3.03;;;2.40;;
60318;SDS011;46163;52.306;5.634;2023-06-24T14:06:23;3.20;;;2.40;;
60318;SDS011;46163;52.306;5.634;2023-06-24T14:08:49;5.35;;;2.63;;
60318;SDS011;46163;52.306;5.634;2023-06-24T14:11:15;2.60;;;2.40;;
60318;SDS011;46163;52.306;5.634;2023-06-24T14:13:41;3.97;;;2.72;;
60318;SDS011;46163;52.306;5.634;2023-06-24T14:16:08;4.10;;;2.60;;
60318;SDS011;46163;52.306;5.634;2023-06-24T14:18:37;2.40;;;2.20;;
60318;SDS011;46163;52.306;5.634;2023-06-24T14:21:04;2.83;;;2.53;;
60318;SDS011;46163;52.306;5.634;2023-06-24T14:23:30;3.47;;;2.42;;
60318;SDS011;46163;52.306;5.634;2023-06-24T14:25:57;4.40;;;2.72;;
60318;SDS011;46163;52.306;5.634;2023-06-24T14:28:24;3.65;;;2.40;;
60318;SDS011;46163;52.306;5.634;2023-06-24T14:30:50;5.93;;;2.67;;
60318;SDS011;46163;52.306;5.634;2023-06-24T14:33:16;5.40;;;3.05;;
60318;SDS011;46163;52.306;5.634;2023-06-24T14:35:42;3.80;;;2.53;;
60318;SDS011;46163;52.306;5.634;2023-06-24T14:38:08;2.88;;;2.55;;
60318;SDS011;46163;52.306;5.634;2023-06-24T14:40:33;3.67;;;2.60;;
60318;SDS011;46163;52.306;5.634;2023-06-24T14:42:59;3.75;;;2.58;;
60318;SDS011;46163;52.306;5.634;2023-06-24T14:45:26;2.55;;;2.35;;
60318;SDS011;46163;52.306;5.634;2023-06-24T14:47:52;2.85;;;2.30;;
60318;SDS011;46163;52.306;5.634;2023-06-24T14:50:18;5.03;;;2.58;;
60318;SDS011;46163;52.306;5.634;2023-06-24T14:52:44;3.10;;;2.80;;
60318;SDS011;46163;52.306;5.634;2023-06-24T14:55:09;5.13;;;2.85;;
60318;SDS011;46163;52.306;5.634;2023-06-24T14:57:36;6.05;;;2.78;;
60318;SDS011;46163;52.306;5.634;2023-06-24T15:00:02;3.08;;;2.40;;
60318;SDS011;46163;52.306;5.634;2023-06-24T15:02:30;5.63;;;3.00;;
60318;SDS011;46163;52.306;5.634;2023-06-24T15:04:56;3.70;;;2.92;;
60318;SDS011;46163;52.306;5.634;2023-06-24T15:07:21;6.43;;;3.15;;
60318;SDS011;46163;52.306;5.634;2023-06-24T15:09:49;4.35;;;2.85;;
60318;SDS011;46163;52.306;5.634;2023-06-24T15:12:15;4.68;;;3.10;;
60318;SDS011;46163;52.306;5.634;2023-06-24T15:14:41;4.13;;;2.88;;
60318;SDS011;46163;52.306;5.634;2023-06-24T15:17:08;5.15;;;2.75;;
60318;SDS011;46163;52.306;5.634;2023-06-24T15:19:33;6.57;;;3.38;;
60318;SDS011;46163;52.306;5.634;2023-06-24T15:21:59;3.95;;;3.15;;
60318;SDS011;46163;52.306;5.634;2023-06-24T15:24:25;4.43;;;3.30;;
60318;SDS011;46163;52.306;5.634;2023-06-24T15:26:50;4.63;;;3.13;;
60318;SDS011;46163;52.306;5.634;2023-06-24T15:29:16;7.43;;;3.75;;
60318;SDS011;46163;52.306;5.634;2023-06-24T15:31:41;5.53;;;2.85;;
60318;SDS011;46163;52.306;5.634;2023-06-24T15:34:07;4.43;;;3.20;;
60318;SDS011;46163;52.306;5.634;2023-06-24T15:36:32;4.28;;;2.88;;
60318;SDS011;46163;52.306;5.634;2023-06-24T15:39:00;4.95;;;3.22;;
60318;SDS011;46163;52.306;5.634;2023-06-24T15:41:26;4.75;;;3.22;;
60318;SDS011;46163;52.306;5.634;2023-06-24T15:43:51;5.30;;;3.20;;
60318;SDS011;46163;52.306;5.634;2023-06-24T15:46:17;10.63;;;3.22;;
60318;SDS011;46163;52.306;5.634;2023-06-24T15:48:42;4.07;;;3.17;;
60318;SDS011;46163;52.306;5.634;2023-06-24T15:51:08;4.00;;;3.10;;
60318;SDS011;46163;52.306;5.634;2023-06-24T15:53:33;6.57;;;3.20;;
60318;SDS011;46163;52.306;5.634;2023-06-24T15:56:02;8.15;;;3.13;;
60318;SDS011;46163;52.306;5.634;2023-06-24T15:58:27;6.38;;;3.33;;
60318;SDS011;46163;52.306;5.634;2023-06-24T16:00:53;4.93;;;3.53;;
60318;SDS011;46163;52.306;5.634;2023-06-24T16:03:18;5.18;;;3.53;;
60318;SDS011;46163;52.306;5.634;2023-06-24T16:05:44;6.57;;;3.80;;
60318;SDS011;46163;52.306;5.634;2023-06-24T16:08:09;5.43;;;3.15;;
60318;SDS011;46163;52.306;5.634;2023-06-24T16:10:35;5.65;;;3.65;;
60318;SDS011;46163;52.306;5.634;2023-06-24T16:13:03;4.70;;;3.25;;
60318;SDS011;46163;52.306;5.634;2023-06-24T16:15:28;5.65;;;3.30;;
60318;SDS011;46163;52.306;5.634;2023-06-24T16:17:54;6.18;;;3.38;;
60318;SDS011;46163;52.306;5.634;2023-06-24T16:20:20;6.35;;;3.28;;
60318;SDS011;46163;52.306;5.634;2023-06-24T16:22:46;4.97;;;3.50;;
60318;SDS011;46163;52.306;5.634;2023-06-24T16:25:12;6.43;;;3.40;;
60318;SDS011;46163;52.306;5.634;2023-06-24T16:27:38;5.15;;;3.38;;
60318;SDS011;46163;52.306;5.634;2023-06-24T16:30:04;4.53;;;3.10;;
60318;SDS011;46163;52.306;5.634;2023-06-24T16:32:30;4.15;;;3.05;;
60318;SDS011;46163;52.306;5.634;2023-06-24T16:34:56;6.03;;;3.15;;
60318;SDS011;46163;52.306;5.634;2023-06-24T16:39:49;9.05;;;6.60;;
60318;SDS011;46163;52.306;5.634;2023-06-24T16:42:14;57.72;;;46.40;;
60318;SDS011;46163;52.306;5.634;2023-06-24T16:44:40;57.50;;;48.17;;
60318;SDS011;46163;52.306;5.634;2023-06-24T16:47:05;13.65;;;9.82;;
60318;SDS011;46163;52.306;5.634;2023-06-24T16:49:31;6.63;;;3.55;;
60318;SDS011;46163;52.306;5.634;2023-06-24T16:51:57;7.57;;;3.58;;
60318;SDS011;46163;52.306;5.634;2023-06-24T16:54:23;5.30;;;3.38;;
60318;SDS011;46163;52.306;5.634;2023-06-24T16:56:54;5.22;;;3.28;;
60318;SDS011;46163;52.306;5.634;2023-06-24T16:59:24;4.78;;;3.30;;
60318;SDS011;46163;52.306;5.634;2023-06-24T17:01:50;7.40;;;3.10;;
60318;SDS011;46163;52.306;5.634;2023-06-24T17:04:15;4.40;;;3.10;;
60318;SDS011;46163;52.306;5.634;2023-06-24T17:06:41;4.38;;;3.20;;
60318;SDS011;46163;52.306;5.634;2023-06-24T17:09:06;3.65;;;2.83;;
60318;SDS011;46163;52.306;5.634;2023-06-24T17:11:31;4.78;;;3.67;;
60318;SDS011;46163;52.306;5.634;2023-06-24T17:13:57;8.90;;;3.80;;
60318;SDS011;46163;52.306;5.634;2023-06-24T17:16:22;6.18;;;3.50;;
60318;SDS011;46163;52.306;5.634;2023-06-24T17:18:48;9.32;;;3.00;;
60318;SDS011;46163;52.306;5.634;2023-06-24T17:21:13;5.35;;;3.05;;
60318;SDS011;46163;52.306;5.634;2023-06-24T17:23:39;5.35;;;2.72;;
60318;SDS011;46163;52.306;5.634;2023-06-24T17:26:13;7.35;;;2.90;;
60318;SDS011;46163;52.306;5.634;2023-06-24T17:31:05;3.30;;;2.88;;